createdAt,value
2022-12-26T00:01:37.024Z,99407.69
2022-12-26T00:04:07.553Z,99419.81
2022-12-26T00:06:55.859Z,99422.03
2022-12-26T00:09:24.359Z,99420.69
2022-12-26T00:11:52.896Z,99413.81
2022-12-26T00:14:21.647Z,99402.56
2022-12-26T00:16:50.190Z,99403.69
2022-12-26T00:19:20.102Z,99424.31
2022-12-26T00:21:48.759Z,99421.31
2022-12-26T00:24:17.189Z,99425.69
2022-12-26T00:26:45.642Z,99426.53
2022-12-26T00:29:14.094Z,99429.28
2022-12-26T00:31:42.613Z,99433.13
2022-12-26T00:34:11.909Z,99433.38
2022-12-26T00:36:41.749Z,99419.06
2022-12-26T00:39:14.013Z,99416.84
2022-12-26T00:41:42.430Z,99422.06
2022-12-26T00:44:10.840Z,99436.09
2022-12-26T00:46:39.379Z,99432.22
2022-12-26T00:49:07.862Z,99432.22
2022-12-26T00:51:36.293Z,99430.03
2022-12-26T00:54:06.240Z,99425.09
2022-12-26T00:56:34.658Z,99426.50
2022-12-26T00:59:03.135Z,99423.50
2022-12-26T01:01:32.542Z,99422.94
2022-12-26T01:04:01.291Z,99421.59
2022-12-26T01:06:29.714Z,99427.41
2022-12-26T01:08:59.611Z,99432.94
2022-12-26T01:11:41.903Z,99440.38
2022-12-26T01:14:14.187Z,99448.63
2022-12-26T01:16:45.546Z,99453.31
2022-12-26T01:19:15.046Z,99459.13
2022-12-26T01:21:43.712Z,99446.22
2022-12-26T01:24:13.844Z,99440.19
2022-12-26T01:26:43.765Z,99437.22
2022-12-26T01:29:12.190Z,99449.84
2022-12-26T01:31:40.686Z,99446.28
2022-12-26T01:34:09.377Z,99432.78
2022-12-26T01:36:37.805Z,99438.78
2022-12-26T01:39:06.295Z,99440.16
2022-12-26T01:41:34.856Z,99440.44
2022-12-26T01:44:08.511Z,99453.63
2022-12-26T01:46:41.408Z,99446.47
2022-12-26T01:49:16.143Z,99449.50
2022-12-26T01:51:49.369Z,99447.81
2022-12-26T01:54:37.409Z,99447.53
2022-12-26T01:57:12.497Z,99441.19
2022-12-26T01:59:43.178Z,99448.31
2022-12-26T02:02:12.423Z,99445.84
2022-12-26T02:05:04.244Z,99443.34
2022-12-26T02:07:35.770Z,99450.22
2022-12-26T02:10:07.294Z,99452.97
2022-12-26T02:12:38.965Z,99450.47
2022-12-26T02:15:13.757Z,99443.31
2022-12-26T02:17:42.928Z,99450.75
2022-12-26T02:20:21.949Z,99455.41
2022-12-26T02:23:42.268Z,99449.63
2022-12-26T02:26:52.860Z,99443.53
2022-12-26T02:30:15.056Z,99452.88
2022-12-26T02:33:32.139Z,99444.38
2022-12-26T02:36:37.714Z,99447.13
2022-12-26T02:39:43.407Z,99433.94
2022-12-26T02:42:29.229Z,99422.94
2022-12-26T02:45:26.154Z,99429.00
2022-12-26T02:48:04.502Z,99433.41
2022-12-26T02:51:23.328Z,99431.50
2022-12-26T02:54:20.920Z,99422.16
2022-12-26T02:57:13.149Z,99421.06
2022-12-26T03:00:10.811Z,99423.53
2022-12-26T03:03:02.471Z,99436.19
2022-12-26T03:05:55.251Z,99429.31
2022-12-26T03:08:49.508Z,99440.88
2022-12-26T03:11:35.305Z,99440.03
2022-12-26T03:14:15.962Z,99442.22
2022-12-26T03:17:04.230Z,99445.81
2022-12-26T03:19:35.538Z,99449.38
2022-12-26T03:22:27.476Z,99452.69
2022-12-26T03:25:13.205Z,99452.97
2022-12-26T03:27:41.637Z,99446.63
2022-12-26T03:30:25.525Z,99443.63
2022-12-26T03:32:56.763Z,99452.69
2022-12-26T03:35:26.038Z,99453.53
2022-12-26T03:37:58.593Z,99464.75
2022-12-26T03:40:59.424Z,99464.47
2022-12-26T03:44:07.679Z,99466.63
2022-12-26T03:47:12.176Z,99480.34
2022-12-26T03:50:04.762Z,99473.16
2022-12-26T03:53:00.384Z,99479.69
2022-12-26T03:56:01.575Z,99484.34
2022-12-26T03:58:55.667Z,99484.28
2022-12-26T04:01:49.145Z,99487.56
2022-12-26T04:04:37.314Z,99485.91
2022-12-26T04:07:31.105Z,99484.75
2022-12-26T04:10:22.107Z,99471.56
2022-12-26T04:13:11.630Z,99488.28
2022-12-26T04:16:03.679Z,99477.00
2022-12-26T04:19:02.358Z,99480.84
2022-12-26T04:21:59.037Z,99474.53
2022-12-26T04:24:51.046Z,99476.19
2022-12-26T04:27:39.844Z,99472.34
2022-12-26T04:30:29.104Z,99479.81
2022-12-26T04:33:23.911Z,99471.28
2022-12-26T04:36:15.297Z,99469.94
2022-12-26T04:39:07.954Z,99475.16
2022-12-26T04:41:55.467Z,99471.91
2022-12-26T04:44:25.672Z,99463.94
2022-12-26T04:46:57.286Z,99471.38
2022-12-26T04:49:43.465Z,99481.03
2022-12-26T04:52:14.658Z,99477.16
2022-12-26T04:54:44.388Z,99472.81
2022-12-26T04:57:13.083Z,99481.34
2022-12-26T04:59:41.501Z,99486.34
2022-12-26T05:02:29.104Z,99478.09
2022-12-26T05:05:14.906Z,99476.44
2022-12-26T05:08:01.063Z,99474.75
2022-12-26T05:10:30.300Z,99473.41
2022-12-26T05:12:58.712Z,99477.22
2022-12-26T05:15:27.197Z,99481.03
2022-12-26T05:18:14.549Z,99479.13
2022-12-26T05:21:00.274Z,99491.47
2022-12-26T05:23:47.274Z,99491.47
2022-12-26T05:26:37.893Z,99488.72
2022-12-26T05:29:06.536Z,99484.59
2022-12-26T05:31:36.825Z,99477.44
2022-12-26T05:34:06.848Z,99481.03
2022-12-26T05:36:40.404Z,99484.28
2022-12-26T05:39:10.110Z,99495.56
2022-12-26T05:41:40.565Z,99496.63
2022-12-26T05:44:10.547Z,99501.56
2022-12-26T05:46:39.954Z,99492.75
2022-12-26T05:49:10.558Z,99502.13
2022-12-26T05:51:39.116Z,99503.53
2022-12-26T05:54:07.604Z,99502.16
2022-12-26T05:56:36.079Z,99502.72
2022-12-26T05:59:04.565Z,99525.00
2022-12-26T06:01:33.276Z,99521.75
2022-12-26T06:04:02.998Z,99509.97
2022-12-26T06:06:32.859Z,99508.59
2022-12-26T06:09:01.301Z,99502.03
2022-12-26T06:11:29.753Z,99500.94
2022-12-26T06:13:58.840Z,99507.25
2022-12-26T06:16:27.311Z,99504.78
2022-12-26T06:18:56.554Z,99513.63
2022-12-26T06:21:26.294Z,99510.88
2022-12-26T06:23:56.088Z,99505.94
2022-12-26T06:26:24.593Z,99496.34
2022-12-26T06:28:53.244Z,99500.72
2022-12-26T06:31:24.882Z,99506.50
2022-12-26T06:33:58.426Z,99510.91
2022-12-26T06:36:28.615Z,99515.31
2022-12-26T06:38:58.519Z,99510.91
2022-12-26T06:41:27.309Z,99513.66
2022-12-26T06:43:57.091Z,99517.50
2022-12-26T06:46:26.906Z,99529.84
2022-12-26T06:48:55.729Z,99513.63
2022-12-26T06:51:26.626Z,99522.69
2022-12-26T06:53:55.805Z,99516.09
2022-12-26T06:56:27.907Z,99513.63
2022-12-26T06:58:57.445Z,99520.22
2022-12-26T07:01:27.247Z,99524.31
2022-12-26T07:03:57.110Z,99528.97
2022-12-26T07:06:27.798Z,99535.88
2022-12-26T07:09:00.048Z,99536.41
2022-12-26T07:11:32.489Z,99535.34
2022-12-26T07:14:01.567Z,99535.06
2022-12-26T07:16:30.153Z,99541.13
2022-12-26T07:18:59.913Z,99542.81
2022-12-26T07:21:29.856Z,99538.44
2022-12-26T07:23:59.870Z,99541.19
2022-12-26T07:26:29.676Z,99533.75
2022-12-26T07:29:00.184Z,99538.44
2022-12-26T07:31:29.308Z,99534.84
2022-12-26T07:33:58.243Z,99550.53
2022-12-26T07:36:27.160Z,99541.97
2022-12-26T07:38:55.630Z,99553.78
2022-12-26T07:41:41.942Z,99544.72
2022-12-26T07:44:12.688Z,99545.56
2022-12-26T07:46:41.156Z,99548.31
2022-12-26T07:49:12.169Z,99555.97
2022-12-26T07:51:40.676Z,99565.31
2022-12-26T07:54:11.661Z,99559.53
2022-12-26T07:56:40.544Z,99552.09
2022-12-26T07:59:09.447Z,99555.66
2022-12-26T08:01:39.356Z,99560.66
2022-12-26T08:04:07.951Z,99568.66
2022-12-26T08:06:36.443Z,99572.53
2022-12-26T08:09:05.542Z,99587.13
2022-12-26T08:11:36.239Z,99573.94
2022-12-26T08:14:04.836Z,99570.66
2022-12-26T08:16:33.410Z,99572.06
2022-12-26T08:19:04.814Z,99569.59
2022-12-26T08:21:33.348Z,99557.56
2022-12-26T08:24:01.892Z,99565.84
2022-12-26T08:26:30.556Z,99571.63
2022-12-26T08:29:00.216Z,99577.97
2022-12-26T08:31:28.710Z,99574.91
2022-12-26T08:33:58.406Z,99576.25
2022-12-26T08:36:28.251Z,99566.94
2022-12-26T08:38:57.187Z,99564.47
2022-12-26T08:41:26.073Z,99582.00
2022-12-26T08:46:43.520Z,99577.22
2022-12-26T08:49:12.144Z,99579.13
2022-12-26T08:51:41.984Z,99583.28
2022-12-26T08:54:10.385Z,99592.38
2022-12-26T08:56:38.847Z,99585.53
2022-12-26T08:59:07.273Z,99585.84
2022-12-26T09:01:35.958Z,99584.78
2022-12-26T09:04:07.012Z,99577.41
2022-12-26T09:06:37.681Z,99573.88
2022-12-26T09:09:09.146Z,99584.94
2022-12-26T09:11:37.530Z,99578.94
2022-12-26T09:14:06.076Z,99575.38
2022-12-26T09:16:39.322Z,99577.88
2022-12-26T09:19:12.739Z,99581.75
2022-12-26T09:21:42.041Z,99582.91
2022-12-26T09:24:16.373Z,99577.41
2022-12-26T09:26:45.343Z,99571.63
2022-12-26T09:29:14.767Z,99556.22
2022-12-26T09:31:43.214Z,99557.34
2022-12-26T09:34:11.895Z,99556.78
2022-12-26T09:36:40.767Z,99551.03
2022-12-26T09:39:09.931Z,99553.22
2022-12-26T09:42:04.103Z,99563.44
2022-12-26T09:44:47.813Z,99560.66
2022-12-26T09:47:33.383Z,99554.63
2022-12-26T09:50:12.160Z,99559.28
2022-12-26T09:52:49.455Z,99557.63
2022-12-26T09:55:36.642Z,99567.00
2022-12-26T09:58:20.329Z,99562.38
2022-12-26T10:00:56.817Z,99558.53
2022-12-26T10:03:26.082Z,99555.78
2022-12-26T10:06:11.349Z,99555.53
2022-12-26T10:09:28.310Z,99553.34
2022-12-26T10:12:36.923Z,99546.78
2022-12-26T10:15:21.440Z,99544.28
2022-12-26T10:18:02.145Z,99541.00
2022-12-26T10:20:40.953Z,99549.28
2022-12-26T10:23:31.022Z,99554.00
2022-12-26T10:26:09.755Z,99539.38
2022-12-26T10:28:43.903Z,99528.94
2022-12-26T10:31:22.580Z,99531.19
2022-12-26T10:33:57.707Z,99536.69
2022-12-26T10:36:35.858Z,99541.69
2022-12-26T10:39:09.886Z,99535.06
2022-12-26T10:41:46.120Z,99532.28
2022-12-26T10:44:16.371Z,99535.88
2022-12-26T10:47:27.323Z,99534.22
2022-12-26T10:49:59.935Z,99530.09
2022-12-26T10:52:35.599Z,99530.91
2022-12-26T10:55:29.684Z,99520.44
2022-12-26T10:57:55.196Z,99513.00
2022-12-26T11:00:27.253Z,99515.47
2022-12-26T11:03:09.239Z,99522.94
2022-12-26T11:08:43.201Z,99501.13
2022-12-26T11:11:22.322Z,99503.34
2022-12-26T11:14:01.250Z,99491.47
2022-12-26T11:16:35.756Z,99495.34
2022-12-26T11:19:06.649Z,99489.81
2022-12-26T11:21:35.616Z,99488.72
2022-12-26T11:24:19.901Z,99477.94
2022-12-26T11:26:48.796Z,99497.78
2022-12-26T11:29:20.566Z,99487.28
2022-12-26T11:31:55.764Z,99464.69
2022-12-26T11:34:34.617Z,99467.44
2022-12-26T11:37:04.530Z,99461.09
2022-12-26T11:39:38.348Z,99457.50
2022-12-26T11:42:12.006Z,99450.34
2022-12-26T11:44:46.145Z,99451.97
2022-12-26T11:47:19.201Z,99446.19
2022-12-26T11:49:59.127Z,99448.38
2022-12-26T11:52:39.572Z,99447.00
2022-12-26T11:55:31.045Z,99447.53
2022-12-26T11:58:06.210Z,99434.25
2022-12-26T12:00:37.159Z,99434.75
2022-12-26T12:03:12.439Z,99435.22
2022-12-26T12:05:53.969Z,99440.75
2022-12-26T12:08:38.597Z,99433.53
2022-12-26T12:11:24.085Z,99431.88
2022-12-26T12:14:26.044Z,99443.16
2022-12-26T12:17:08.019Z,99439.50
2022-12-26T12:19:59.233Z,99441.13
2022-12-26T12:23:07.619Z,99444.16
2022-12-26T12:25:50.877Z,99447.41
2022-12-26T12:28:41.468Z,99444.00
2022-12-26T12:31:23.299Z,99454.47
2022-12-26T12:33:59.927Z,99456.63
2022-12-26T12:36:37.542Z,99455.75
2022-12-26T12:39:17.500Z,99447.19
2022-12-26T12:42:23.727Z,99440.88
2022-12-26T12:45:27.198Z,99442.59
2022-12-26T12:48:24.542Z,99453.16
2022-12-26T12:51:05.025Z,99453.47
2022-12-26T12:53:54.726Z,99442.75
2022-12-26T12:56:42.171Z,99436.97
2022-12-26T12:59:25.540Z,99433.66
2022-12-26T13:02:02.776Z,99444.47
2022-12-26T13:04:43.272Z,99427.63
2022-12-26T13:07:18.826Z,99434.28
2022-12-26T13:09:52.515Z,99440.91
2022-12-26T13:12:26.425Z,99421.56
2022-12-26T13:15:02.279Z,99432.38
2022-12-26T13:17:38.537Z,99423.28
2022-12-26T13:20:23.079Z,99418.88
2022-12-26T13:23:14.533Z,99435.19
2022-12-26T13:26:04.404Z,99409.53
2022-12-26T13:28:45.540Z,99427.53
2022-12-26T13:31:14.935Z,99425.31
2022-12-26T13:33:44.258Z,99420.09
2022-12-26T13:36:38.979Z,99411.28
2022-12-26T13:39:40.745Z,99406.31
2022-12-26T13:42:47.020Z,99419.25
2022-12-26T13:45:49.796Z,99429.47
2022-12-26T13:49:00.458Z,99413.97
2022-12-26T13:51:57.880Z,99422.47
2022-12-26T13:54:29.039Z,99393.44
2022-12-26T13:57:37.233Z,99408.38
2022-12-26T14:00:20.433Z,99417.44
2022-12-26T14:03:26.453Z,99407.75
2022-12-26T14:06:27.492Z,99420.47
2022-12-26T14:09:33.577Z,99422.66
2022-12-26T14:12:26.222Z,99414.63
2022-12-26T14:15:17.644Z,99416.56
2022-12-26T14:18:00.688Z,99423.19
2022-12-26T14:20:42.942Z,99421.28
2022-12-26T14:23:33.780Z,99430.72
2022-12-26T14:26:12.504Z,99439.59
2022-12-26T14:28:58.223Z,99422.81
2022-12-26T14:31:39.685Z,99425.00
2022-12-26T14:34:25.490Z,99440.78
2022-12-26T14:37:05.189Z,99436.66
2022-12-26T14:39:43.814Z,99434.75
2022-12-26T14:42:41.199Z,99423.72
2022-12-26T14:45:44.691Z,99430.97
2022-12-26T14:48:54.485Z,99416.66
2022-12-26T14:51:41.664Z,99417.78
2022-12-26T14:54:50.941Z,99437.94
2022-12-26T14:57:44.195Z,99418.63
2022-12-26T15:00:38.828Z,99432.72
2022-12-26T15:03:39.244Z,99429.13
2022-12-26T15:07:03.803Z,99432.44
2022-12-26T15:10:16.913Z,99429.69
2022-12-26T15:13:38.490Z,99424.22
2022-12-26T15:16:35.800Z,99433.03
2022-12-26T15:20:01.944Z,99421.72
2022-12-26T15:23:20.725Z,99420.09
2022-12-26T15:26:26.139Z,99436.38
2022-12-26T15:29:45.832Z,99435.53
2022-12-26T15:32:19.693Z,99445.47
2022-12-26T15:35:07.404Z,99444.91
2022-12-26T15:38:27.108Z,99450.69
2022-12-26T15:41:10.219Z,99451.81
2022-12-26T15:43:54.107Z,99447.13
2022-12-26T15:46:27.741Z,99451.53
2022-12-26T15:49:31.344Z,99460.34
2022-12-26T15:52:11.882Z,99454.59
2022-12-26T15:55:28.711Z,99446.56
2022-12-26T15:58:03.929Z,99450.69
2022-12-26T16:00:35.631Z,99462.84
2022-12-26T16:03:26.156Z,99452.09
2022-12-26T16:06:06.267Z,99456.75
2022-12-26T16:09:06.563Z,99469.75
2022-12-26T16:11:50.788Z,99468.91
2022-12-26T16:14:33.321Z,99463.69
2022-12-26T16:17:23.370Z,99474.97
2022-12-26T16:19:55.417Z,99472.50
2022-12-26T16:22:49.615Z,99474.41
2022-12-26T16:25:23.720Z,99473.03
2022-12-26T16:27:55.392Z,99477.72
2022-12-26T16:30:26.549Z,99488.19
2022-12-26T16:32:56.107Z,99486.25
2022-12-26T16:35:28.923Z,99490.09
2022-12-26T16:38:00.338Z,99494.78
2022-12-26T16:40:33.055Z,99498.91
2022-12-26T16:43:06.999Z,99506.06
2022-12-26T16:45:38.725Z,99496.16
2022-12-26T16:48:09.405Z,99499.75
2022-12-26T16:50:47.594Z,99493.94
2022-12-26T16:53:18.708Z,99493.94
2022-12-26T16:55:52.691Z,99485.13
2022-12-26T16:58:26.718Z,99477.41
2022-12-26T17:01:08.089Z,99484.56
2022-12-26T17:03:50.042Z,99488.41
2022-12-26T17:06:25.606Z,99493.38
2022-12-26T17:08:55.409Z,99482.34
2022-12-26T17:11:34.947Z,99474.38
2022-12-26T17:14:08.890Z,99475.75
2022-12-26T17:16:37.457Z,99464.44
2022-12-26T17:19:19.003Z,99474.91
2022-12-26T17:22:22.085Z,99464.44
2022-12-26T17:24:52.068Z,99470.78
2022-12-26T17:27:24.558Z,99464.72
2022-12-26T17:30:00.654Z,99473.28
2022-12-26T17:32:35.525Z,99473.00
2022-12-26T17:35:14.166Z,99464.72
2022-12-26T17:37:43.838Z,99465.28
2022-12-26T17:40:27.951Z,99466.41
2022-12-26T17:43:08.950Z,99471.34
2022-12-26T17:45:44.549Z,99480.16
2022-12-26T17:48:14.896Z,99478.78
2022-12-26T17:50:45.761Z,99473.00
2022-12-26T17:53:27.975Z,99466.38
2022-12-26T17:55:58.612Z,99460.34
2022-12-26T17:58:29.145Z,99457.59
2022-12-26T18:00:59.011Z,99454.25
2022-12-26T18:03:27.610Z,99458.63
2022-12-26T18:05:57.806Z,99468.81
2022-12-26T18:08:31.985Z,99463.50
2022-12-26T18:11:01.521Z,99480.25
2022-12-26T18:13:31.795Z,99473.09
2022-12-26T18:16:01.807Z,99469.19
2022-12-26T18:18:35.925Z,99466.19
2022-12-26T18:21:06.733Z,99470.56
2022-12-26T18:23:35.974Z,99462.88
2022-12-26T18:26:18.035Z,99470.06
2022-12-26T18:28:55.012Z,99481.09
2022-12-26T18:31:23.749Z,99474.19
2022-12-26T18:33:53.826Z,99468.34
2022-12-26T18:36:27.606Z,99472.78
2022-12-26T18:38:56.207Z,99475.75
2022-12-26T18:41:24.966Z,99477.03
2022-12-26T18:43:54.873Z,99451.56
2022-12-26T18:46:26.112Z,99442.06
2022-12-26T18:48:56.846Z,99438.13
2022-12-26T18:51:28.368Z,99425.63
2022-12-26T18:53:57.388Z,99431.34
2022-12-26T18:56:26.294Z,99436.53
2022-12-26T18:58:58.156Z,99437.03
2022-12-26T19:01:27.674Z,99442.81
2022-12-26T19:03:57.932Z,99428.16
2022-12-26T19:06:32.565Z,99441.38
2022-12-26T19:09:01.143Z,99445.50
2022-12-26T19:11:29.944Z,99442.16
2022-12-26T19:14:00.934Z,99432.72
2022-12-26T19:16:29.594Z,99426.94
2022-12-26T19:18:58.770Z,99423.03
2022-12-26T19:21:27.414Z,99410.56
2022-12-26T19:23:56.733Z,99413.03
2022-12-26T19:26:26.105Z,99396.97
2022-12-26T19:28:56.598Z,99400.84
2022-12-26T19:31:26.884Z,99416.03
2022-12-26T19:33:58.816Z,99404.66
2022-12-26T19:36:27.529Z,99405.22
2022-12-26T19:38:56.616Z,99405.22
2022-12-26T19:41:25.061Z,99409.31
2022-12-26T19:43:57.770Z,99427.59
2022-12-26T19:46:31.547Z,99450.56
2022-12-26T19:49:00.321Z,99431.72
2022-12-26T19:51:29.073Z,99434.69
2022-12-26T19:53:58.282Z,99441.06
2022-12-26T19:56:29.810Z,99440.75
2022-12-26T19:58:59.953Z,99439.66
2022-12-26T20:01:33.638Z,99442.13
2022-12-26T20:04:06.984Z,99444.63
2022-12-26T20:06:40.467Z,99446.25
2022-12-26T20:09:12.481Z,99431.31
2022-12-26T20:11:45.154Z,99426.31
2022-12-26T20:14:17.940Z,99436.25
2022-12-26T20:17:08.972Z,99426.00
2022-12-26T20:19:38.352Z,99430.13
2022-12-26T20:22:08.915Z,99461.41
2022-12-26T20:24:38.205Z,99468.88
2022-12-26T20:27:07.161Z,99468.88
2022-12-26T20:29:35.922Z,99476.06
2022-12-26T20:32:06.772Z,99460.28
2022-12-26T20:34:35.924Z,99460.28
2022-12-26T20:37:04.593Z,99463.06
2022-12-26T20:39:33.296Z,99431.25
2022-12-26T20:42:02.230Z,99434.03
2022-12-26T20:44:31.496Z,99416.06
2022-12-26T20:47:00.055Z,99408.88
2022-12-26T20:49:30.813Z,99456.50
2022-12-26T20:52:00.335Z,99460.09
2022-12-26T20:54:29.765Z,99457.63
2022-12-26T20:56:59.124Z,99449.84
2022-12-26T20:59:28.034Z,99444.00
2022-12-26T21:01:57.090Z,99459.50
2022-12-26T21:04:25.959Z,99464.75
2022-12-26T21:06:55.840Z,99449.78
2022-12-26T21:09:24.464Z,99424.59
2022-12-26T21:11:53.834Z,99417.94
2022-12-26T21:14:24.294Z,99419.06
2022-12-26T21:16:56.310Z,99408.22
2022-12-26T21:19:27.585Z,99417.34
2022-12-26T21:21:59.592Z,99428.13
2022-12-26T21:24:31.126Z,99433.34
2022-12-26T21:26:59.980Z,99424.22
2022-12-26T21:29:32.229Z,99420.34
2022-12-26T21:32:02.085Z,99436.97
2022-12-26T21:34:33.111Z,99424.22
2022-12-26T21:37:20.686Z,99432.53
2022-12-26T21:39:50.756Z,99427.31
2022-12-26T21:42:19.559Z,99441.97
2022-12-26T21:44:48.699Z,99450.28
2022-12-26T21:47:17.310Z,99434.50
2022-12-26T21:49:45.809Z,99436.44
2022-12-26T21:52:15.734Z,99430.91
2022-12-26T21:55:01.483Z,99427.81
2022-12-26T21:57:30.726Z,99434.50
2022-12-26T21:59:59.868Z,99424.22
2022-12-26T22:02:50.437Z,99435.59
2022-12-26T22:05:21.429Z,99425.38
2022-12-26T22:07:54.972Z,99428.41
2022-12-26T22:10:41.531Z,99438.06
2022-12-26T22:13:10.256Z,99451.91
2022-12-26T22:16:00.975Z,99461.03
2022-12-26T22:18:30.820Z,99467.09
2022-12-26T22:21:04.567Z,99479.84
2022-12-26T22:23:34.946Z,99483.97
2022-12-26T22:26:03.392Z,99485.59
2022-12-26T22:28:32.113Z,99484.78
2022-12-26T22:31:01.682Z,99476.53
2022-12-26T22:33:30.590Z,99471.06
2022-12-26T22:36:06.753Z,99479.19
2022-12-26T22:38:37.975Z,99490.00
2022-12-26T22:41:07.557Z,99487.28
2022-12-26T22:43:37.335Z,99495.31
2022-12-26T22:46:06.050Z,99500.53
2022-12-26T22:48:34.654Z,99498.03
2022-12-26T22:51:03.094Z,99489.13
2022-12-26T22:53:32.490Z,99475.53
2022-12-26T22:56:04.287Z,99483.22
2022-12-26T22:58:34.303Z,99483.19
2022-12-26T23:01:03.037Z,99472.38
2022-12-26T23:03:31.571Z,99468.72
2022-12-26T23:06:00.805Z,99471.69
2022-12-26T23:08:30.355Z,99473.91
2022-12-26T23:11:01.533Z,99471.66
2022-12-26T23:13:30.660Z,99465.53
2022-12-26T23:16:07.392Z,99465.53
2022-12-26T23:19:00.906Z,99469.66
2022-12-26T23:21:39.888Z,99476.31
2022-12-26T23:24:10.469Z,99474.06
2022-12-26T23:26:41.474Z,99471.28
2022-12-26T23:29:30.795Z,99468.53
2022-12-26T23:31:59.511Z,99454.16
2022-12-26T23:34:28.780Z,99442.25
2022-12-26T23:36:57.295Z,99460.78
2022-12-26T23:39:25.888Z,99457.22
2022-12-26T23:41:55.893Z,99455.03
2022-12-26T23:44:24.449Z,99445.69
2022-12-26T23:46:52.896Z,99441.03
2022-12-26T23:49:21.373Z,99438.84
2022-12-26T23:51:49.834Z,99453.25
2022-12-26T23:54:18.295Z,99438.06
2022-12-26T23:56:46.819Z,99445.84
2022-12-26T23:59:16.650Z,99445.00
